Time;durP1;ratioP1;P1;durP2;ratioP2;P2;SDS_P1;SDS_P2;PMS_P1;PMS_P2;Temp;Humidity;BMP_temperature;BMP_pressure;BME280_temperature;BME280_humidity;BME280_pressure;Samples;Min_cycle;Max_cycle;Signal;HPM_P1;HPM_P2
2022/03/31 00:00:57;;;;;;;6.03;4.53;;;4.10;99.90;;;;;;5050672;28;20901;-59
2022/03/31 00:03:26;;;;;;;7.77;4.43;;;4.10;99.90;;;;;;5050131;28;20473;-59
2022/03/31 00:05:54;;;;;;;6.43;4.50;;;4.20;99.90;;;;;;5050870;28;20471;-58
2022/03/31 00:08:23;;;;;;;6.73;4.60;;;4.30;99.90;;;;;;5050895;28;21024;-58
2022/03/31 00:10:53;;;;;;;5.53;4.60;;;4.30;99.90;;;;;;5050523;28;20547;-60
2022/03/31 00:13:24;;;;;;;4.60;4.07;;;4.30;99.90;;;;;;5050788;28;20542;-59
2022/03/31 00:15:53;;;;;;;4.77;4.27;;;4.30;99.90;;;;;;5050481;28;20580;-58
2022/03/31 00:18:24;;;;;;;6.87;4.10;;;4.30;99.90;;;;;;5050409;28;20833;-58
2022/03/31 00:20:52;;;;;;;5.90;4.30;;;4.30;99.90;;;;;;5050437;28;20485;-59
2022/03/31 00:23:20;;;;;;;4.43;3.57;;;4.40;99.90;;;;;;5050097;28;20471;-58
2022/03/31 00:25:48;;;;;;;5.33;4.27;;;4.30;99.90;;;;;;5049999;28;20463;-59
2022/03/31 00:28:17;;;;;;;4.90;4.40;;;4.40;99.90;;;;;;5050482;28;20459;-59
2022/03/31 00:30:45;;;;;;;6.87;4.37;;;4.30;99.90;;;;;;5050015;28;20526;-59
2022/03/31 00:33:14;;;;;;;6.63;4.00;;;4.30;99.90;;;;;;5050573;28;20556;-59
2022/03/31 00:35:43;;;;;;;5.80;3.70;;;4.30;99.90;;;;;;5049983;28;21002;-58
2022/03/31 00:38:12;;;;;;;6.90;3.83;;;4.30;99.90;;;;;;5050491;28;21042;-59
2022/03/31 00:40:41;;;;;;;6.80;4.30;;;4.30;99.90;;;;;;5049959;28;20480;-59
2022/03/31 00:43:09;;;;;;;5.43;4.00;;;4.30;99.90;;;;;;5049857;28;20474;-58
2022/03/31 00:45:47;;;;;;;5.17;3.80;;;4.30;99.90;;;;;;5049739;28;20562;-59
2022/03/31 00:48:18;;;;;;;5.07;3.83;;;4.30;99.90;;;;;;5049744;28;20465;-59
2022/03/31 00:50:48;;;;;;;5.87;3.93;;;4.30;99.90;;;;;;5049872;28;20250;-59
2022/03/31 00:53:17;;;;;;;4.30;3.60;;;4.30;99.90;;;;;;5053301;28;20468;-59
2022/03/31 00:56:02;;;;;;;6.13;3.53;;;4.30;99.90;;;;;;5054040;28;20507;-59
2022/03/31 00:58:32;;;;;;;4.77;3.30;;;4.30;99.90;;;;;;5054011;28;20571;-59
2022/03/31 01:01:00;;;;;;;6.17;3.73;;;4.30;99.90;;;;;;5053892;28;20492;-58
2022/03/31 01:03:29;;;;;;;4.63;3.17;;;4.30;99.90;;;;;;5053333;28;20508;-59
2022/03/31 01:05:59;;;;;;;3.77;3.00;;;4.20;99.90;;;;;;5053845;28;20483;-59
2022/03/31 01:08:27;;;;;;;6.33;3.17;;;4.10;99.90;;;;;;5053760;28;20991;-59
2022/03/31 01:10:56;;;;;;;5.53;2.90;;;4.10;99.90;;;;;;5054025;28;20486;-59
2022/03/31 01:13:25;;;;;;;4.77;2.70;;;4.10;99.90;;;;;;5054199;28;20904;-59
2022/03/31 01:15:54;;;;;;;3.27;2.67;;;4.00;99.90;;;;;;5053713;28;20896;-59
2022/03/31 01:18:22;;;;;;;5.13;2.80;;;3.90;99.90;;;;;;5053650;28;20484;-59
2022/03/31 01:20:51;;;;;;;4.67;2.77;;;3.90;99.90;;;;;;5053395;28;20507;-60
2022/03/31 01:23:21;;;;;;;3.73;2.60;;;4.00;99.90;;;;;;5053253;28;20551;-60
2022/03/31 01:25:49;;;;;;;2.77;2.50;;;4.00;99.90;;;;;;5053267;28;20492;-59
2022/03/31 01:28:18;;;;;;;4.13;2.70;;;4.00;99.90;;;;;;5053578;28;21066;-59
2022/03/31 01:30:47;;;;;;;3.10;2.80;;;4.00;99.90;;;;;;5053103;28;20815;-59
2022/03/31 01:33:16;;;;;;;3.50;2.43;;;3.90;99.90;;;;;;5053552;28;20553;-59
2022/03/31 01:35:45;;;;;;;3.23;2.60;;;3.90;99.90;;;;;;5053137;28;20507;-59
2022/03/31 01:38:13;;;;;;;3.40;2.40;;;4.00;99.90;;;;;;5053397;28;20480;-59
2022/03/31 01:40:43;;;;;;;4.60;2.63;;;3.90;99.90;;;;;;5053021;28;20480;-59
2022/03/31 01:43:11;;;;;;;4.30;2.93;;;3.90;99.90;;;;;;5052802;28;20483;-59
2022/03/31 01:45:40;;;;;;;3.27;2.67;;;3.90;99.90;;;;;;5052988;28;20515;-59
2022/03/31 01:48:09;;;;;;;5.73;2.93;;;3.90;99.90;;;;;;5052826;28;20466;-59
2022/03/31 01:50:37;;;;;;;5.27;3.30;;;3.80;99.90;;;;;;5052712;28;20502;-60
2022/03/31 01:53:06;;;;;;;4.40;3.20;;;3.70;99.90;;;;;;5053013;28;20473;-59
2022/03/31 01:55:34;;;;;;;3.57;3.23;;;3.70;99.90;;;;;;5052764;28;20556;-59
2022/03/31 01:58:04;;;;;;;7.27;3.80;;;3.80;99.90;;;;;;5053329;28;20469;-59
2022/03/31 02:00:33;;;;;;;5.50;3.90;;;3.70;99.90;;;;;;5052728;28;20491;-58
2022/03/31 02:03:01;;;;;;;5.83;3.70;;;3.70;99.90;;;;;;5052116;28;20485;-59
2022/03/31 02:05:29;;;;;;;5.13;3.97;;;3.70;99.90;;;;;;5052494;28;20478;-61
2022/03/31 02:07:58;;;;;;;6.20;4.17;;;3.70;99.90;;;;;;5047878;28;21002;-59
2022/03/31 02:10:26;;;;;;;5.20;4.40;;;3.70;99.90;;;;;;5052250;28;20485;-60
2022/03/31 02:12:55;;;;;;;6.87;4.90;;;3.60;99.90;;;;;;5052140;28;20484;-59
2022/03/31 02:15:25;;;;;;;5.80;5.20;;;3.60;99.90;;;;;;5051928;28;20558;-59
2022/03/31 02:17:54;;;;;;;6.80;5.80;;;3.60;99.90;;;;;;5052551;28;21026;-58
2022/03/31 02:20:22;;;;;;;9.57;6.80;;;3.60;99.90;;;;;;5052529;28;20473;-60
2022/03/31 02:22:51;;;;;;;9.87;7.30;;;3.60;99.90;;;;;;5052410;28;20477;-59
2022/03/31 02:25:19;;;;;;;10.93;7.10;;;3.60;99.90;;;;;;5052070;28;20467;-58
2022/03/31 02:27:51;;;;;;;10.83;8.30;;;3.60;99.90;;;;;;5051908;28;20461;-58
2022/03/31 02:30:21;;;;;;;10.03;7.77;;;3.60;99.90;;;;;;5052267;28;20473;-58
2022/03/31 02:32:52;;;;;;;8.63;7.70;;;3.50;99.90;;;;;;5052290;28;20468;-58
2022/03/31 02:35:20;;;;;;;10.27;7.73;;;3.50;99.90;;;;;;5052502;28;20540;-58
2022/03/31 02:37:48;;;;;;;9.20;7.20;;;3.60;99.90;;;;;;5052234;28;20954;-58
2022/03/31 02:40:16;;;;;;;7.53;6.83;;;3.60;99.90;;;;;;5052261;28;20956;-58
2022/03/31 02:42:44;;;;;;;7.33;5.87;;;3.60;99.90;;;;;;5052260;28;20490;-58
2022/03/31 02:45:13;;;;;;;7.63;6.17;;;3.60;99.90;;;;;;5051249;28;20478;-58
2022/03/31 02:47:44;;;;;;;6.33;5.73;;;3.50;99.90;;;;;;5051788;28;20565;-58
2022/03/31 02:50:15;;;;;;;7.30;5.87;;;3.50;99.90;;;;;;5052078;28;20487;-58
2022/03/31 02:55:30;;;;;;;8.87;5.90;;;3.50;99.90;;;;;;5051419;28;21019;-59
2022/03/31 02:58:01;;;;;;;9.33;6.87;;;3.50;99.90;;;;;;5052103;28;21054;-58
2022/03/31 03:00:31;;;;;;;9.97;6.70;;;3.50;99.90;;;;;;5051514;28;20498;-58
2022/03/31 03:02:59;;;;;;;7.77;6.97;;;3.50;99.90;;;;;;5049213;28;20473;-58
2022/03/31 03:05:29;;;;;;;11.03;7.37;;;3.40;99.90;;;;;;5046193;28;20979;-58
2022/03/31 03:07:57;;;;;;;9.37;7.30;;;3.40;99.90;;;;;;5050940;28;20490;-58
2022/03/31 03:10:25;;;;;;;9.20;7.27;;;3.40;99.90;;;;;;5051475;28;20990;-59
2022/03/31 03:12:56;;;;;;;8.13;6.43;;;3.30;99.90;;;;;;5051445;28;20593;-59
2022/03/31 03:15:25;;;;;;;10.70;8.37;;;3.30;99.90;;;;;;5050900;28;20549;-58
2022/03/31 03:17:53;;;;;;;13.17;10.07;;;3.20;99.90;;;;;;5051293;28;20479;-58
2022/03/31 03:20:24;;;;;;;13.43;11.07;;;3.10;99.90;;;;;;5051341;28;20970;-58
2022/03/31 03:22:54;;;;;;;12.77;11.17;;;3.20;99.90;;;;;;5051593;28;20483;-59
2022/03/31 03:25:23;;;;;;;14.60;11.50;;;3.00;99.90;;;;;;5051019;28;20476;-58
2022/03/31 03:27:52;;;;;;;14.60;12.13;;;3.10;99.90;;;;;;5051181;28;20508;-58
2022/03/31 03:30:20;;;;;;;13.57;9.97;;;3.10;99.90;;;;;;5051112;28;20489;-58
2022/03/31 03:32:48;;;;;;;12.17;10.67;;;3.10;99.90;;;;;;5051097;28;20493;-58
2022/03/31 03:35:17;;;;;;;14.07;9.77;;;3.10;99.90;;;;;;5051362;28;20466;-58
2022/03/31 03:37:45;;;;;;;13.33;10.30;;;3.10;99.90;;;;;;5051227;28;20508;-58
2022/03/31 03:40:16;;;;;;;12.87;10.57;;;3.00;99.90;;;;;;5051263;28;20476;-58
2022/03/31 03:42:44;;;;;;;14.63;11.13;;;2.90;99.90;;;;;;5050964;28;20482;-58
2022/03/31 03:45:14;;;;;;;12.23;10.47;;;3.00;99.90;;;;;;5050641;28;20490;-58
2022/03/31 03:47:43;;;;;;;13.57;10.57;;;3.00;99.90;;;;;;5050690;28;20490;-58
2022/03/31 03:50:11;;;;;;;12.53;10.30;;;2.90;99.90;;;;;;5050593;28;20471;-59
2022/03/31 03:52:40;;;;;;;13.70;11.77;;;2.80;99.90;;;;;;5050735;28;20501;-58
2022/03/31 03:55:09;;;;;;;13.80;11.97;;;2.80;99.90;;;;;;5050740;28;20486;-58
2022/03/31 03:57:39;;;;;;;13.37;11.00;;;2.80;99.90;;;;;;5050568;28;20481;-58
2022/03/31 04:00:09;;;;;;;15.20;11.60;;;2.70;99.90;;;;;;5050771;28;20576;-58
2022/03/31 04:02:39;;;;;;;17.57;14.50;;;2.70;99.90;;;;;;5050668;28;20487;-59
2022/03/31 04:05:08;;;;;;;16.80;13.23;;;2.70;99.90;;;;;;5050117;28;20849;-58
2022/03/31 04:07:36;;;;;;;17.23;14.30;;;2.60;99.90;;;;;;5044445;28;20545;-59
2022/03/31 04:10:04;;;;;;;19.47;14.50;;;2.70;99.90;;;;;;5043457;28;20481;-58
2022/03/31 04:12:32;;;;;;;17.63;13.80;;;2.60;99.90;;;;;;5043677;28;20482;-58
2022/03/31 04:15:04;;;;;;;19.63;14.50;;;2.60;99.90;;;;;;5044074;28;20474;-59
2022/03/31 04:17:33;;;;;;;18.00;15.03;;;2.60;99.90;;;;;;5046591;28;20979;-58
2022/03/31 04:20:02;;;;;;;17.17;13.87;;;2.50;99.90;;;;;;5043740;28;20469;-58
2022/03/31 04:22:33;;;;;;;16.83;13.80;;;2.50;99.90;;;;;;5042375;28;20467;-58
2022/03/31 04:25:01;;;;;;;18.23;13.53;;;2.60;99.90;;;;;;5044326;28;20483;-58
2022/03/31 04:27:30;;;;;;;15.13;11.50;;;2.60;99.90;;;;;;5045328;28;20472;-58
2022/03/31 04:29:58;;;;;;;14.70;11.70;;;2.50;99.90;;;;;;5049319;28;20480;-58
2022/03/31 04:32:28;;;;;;;13.93;10.53;;;2.50;99.90;;;;;;5044940;28;20467;-59
2022/03/31 04:34:56;;;;;;;10.93;9.83;;;2.50;99.90;;;;;;5047613;28;20493;-60
2022/03/31 04:37:24;;;;;;;11.30;9.97;;;2.40;99.90;;;;;;5050325;28;20493;-57
2022/03/31 04:39:52;;;;;;;11.33;9.10;;;2.40;99.90;;;;;;5050387;28;20482;-58
2022/03/31 04:42:21;;;;;;;10.13;8.90;;;2.30;99.90;;;;;;5050379;28;20501;-58
2022/03/31 04:44:49;;;;;;;10.10;8.73;;;2.30;99.90;;;;;;5049498;28;20484;-58
2022/03/31 04:47:17;;;;;;;10.03;8.97;;;2.30;99.90;;;;;;5050317;28;20516;-58
2022/03/31 04:49:47;;;;;;;10.50;8.30;;;2.30;99.90;;;;;;5050153;28;20465;-58
2022/03/31 04:52:15;;;;;;;9.00;8.00;;;2.30;99.90;;;;;;5050231;28;20486;-58
2022/03/31 04:54:44;;;;;;;9.30;8.07;;;2.30;99.90;;;;;;5049955;28;21021;-58
2022/03/31 04:57:13;;;;;;;10.07;8.63;;;2.20;99.90;;;;;;5050317;28;20567;-59
2022/03/31 04:59:41;;;;;;;12.40;9.47;;;2.20;99.90;;;;;;5049651;28;20485;-58
2022/03/31 05:02:10;;;;;;;9.70;8.57;;;2.20;99.90;;;;;;5050335;28;20839;-58
2022/03/31 05:04:38;;;;;;;10.30;9.13;;;2.20;99.90;;;;;;5049489;28;20549;-57
2022/03/31 05:07:09;;;;;;;10.30;8.93;;;2.10;99.90;;;;;;5050157;28;20478;-58
2022/03/31 05:09:38;;;;;;;10.87;8.80;;;2.10;99.90;;;;;;5049660;28;20569;-59
2022/03/31 05:12:06;;;;;;;10.70;9.60;;;2.10;99.90;;;;;;5050163;28;20487;-58
2022/03/31 05:14:35;;;;;;;9.93;8.93;;;2.10;99.90;;;;;;5049759;28;20470;-58
2022/03/31 05:17:03;;;;;;;9.87;8.87;;;2.10;99.90;;;;;;5047842;28;20489;-58
2022/03/31 05:19:31;;;;;;;10.67;9.57;;;2.10;99.90;;;;;;5049019;28;20478;-59
2022/03/31 05:21:59;;;;;;;10.60;9.50;;;2.10;99.90;;;;;;5049811;28;20537;-59
2022/03/31 05:24:29;;;;;;;10.27;9.27;;;2.10;99.90;;;;;;5049180;28;20522;-59
2022/03/31 05:26:57;;;;;;;9.90;8.90;;;2.00;99.90;;;;;;5049939;28;21007;-58
2022/03/31 05:29:25;;;;;;;10.33;9.33;;;2.00;99.90;;;;;;5050346;28;20468;-58
2022/03/31 05:31:53;;;;;;;10.53;9.43;;;2.10;99.90;;;;;;5049848;28;20479;-58
2022/03/31 05:34:22;;;;;;;11.07;9.90;;;2.00;99.90;;;;;;5049795;28;21287;-58
2022/03/31 05:36:50;;;;;;;11.40;10.20;;;2.00;99.90;;;;;;5049626;28;20571;-58
2022/03/31 05:39:18;;;;;;;13.10;11.07;;;1.90;99.90;;;;;;5052420;28;20462;-58
2022/03/31 05:41:48;;;;;;;13.27;11.53;;;1.90;99.90;;;;;;5053140;28;20908;-59
2022/03/31 05:44:16;;;;;;;12.93;10.73;;;1.90;99.90;;;;;;5051611;28;20518;-58
2022/03/31 05:46:44;;;;;;;13.33;12.03;;;1.90;99.90;;;;;;5053004;28;20865;-58
2022/03/31 05:49:12;;;;;;;12.73;11.43;;;1.90;99.90;;;;;;5053384;28;20484;-58
2022/03/31 05:51:40;;;;;;;12.90;11.40;;;1.80;99.90;;;;;;5053124;28;20481;-58
2022/03/31 05:54:08;;;;;;;14.20;12.27;;;1.90;99.90;;;;;;5052178;28;20480;-58
2022/03/31 05:56:37;;;;;;;12.67;11.37;;;1.90;99.90;;;;;;5052437;28;20477;-58
2022/03/31 05:59:06;;;;;;;13.80;12.37;;;1.90;99.90;;;;;;5053122;28;20501;-59
2022/03/31 06:01:35;;;;;;;14.37;12.53;;;1.90;99.90;;;;;;5053033;28;20574;-58
2022/03/31 06:04:03;;;;;;;13.83;12.43;;;1.90;99.90;;;;;;5052627;28;21011;-59
2022/03/31 06:06:31;;;;;;;14.70;12.93;;;1.90;99.90;;;;;;5053010;28;20478;-58
2022/03/31 06:08:59;;;;;;;14.73;12.57;;;1.80;99.90;;;;;;5052958;28;20987;-58
2022/03/31 06:11:27;;;;;;;14.60;13.10;;;1.80;99.90;;;;;;5052842;28;20471;-59
2022/03/31 06:13:55;;;;;;;14.17;12.77;;;1.80;99.90;;;;;;5053472;28;20562;-58
2022/03/31 06:16:25;;;;;;;15.03;13.40;;;1.80;99.90;;;;;;5052261;28;20498;-58
2022/03/31 06:18:53;;;;;;;15.03;13.43;;;1.80;99.90;;;;;;5046000;28;20486;-58
2022/03/31 06:21:21;;;;;;;14.63;11.67;;;1.80;99.90;;;;;;5052731;28;20994;-58
2022/03/31 06:23:50;;;;;;;15.30;13.70;;;1.80;99.90;;;;;;5051072;28;20864;-59
2022/03/31 06:26:18;;;;;;;15.00;13.40;;;1.70;99.90;;;;;;5052632;28;20538;-58
2022/03/31 06:28:46;;;;;;;15.17;13.57;;;1.70;99.90;;;;;;5051775;28;20506;-58
2022/03/31 06:31:14;;;;;;;13.87;10.70;;;1.70;99.90;;;;;;5051665;28;21152;-57
2022/03/31 06:33:45;;;;;;;14.40;12.73;;;1.70;99.90;;;;;;5051588;28;20474;-58
2022/03/31 06:36:13;;;;;;;13.80;12.37;;;1.70;99.90;;;;;;5052572;28;20479;-57
2022/03/31 06:38:41;;;;;;;12.83;11.43;;;1.70;99.90;;;;;;5052569;28;20597;-58
2022/03/31 06:41:13;;;;;;;13.40;11.53;;;1.60;99.90;;;;;;5052515;28;20478;-58
2022/03/31 06:43:44;;;;;;;12.37;11.03;;;1.60;99.90;;;;;;5049482;28;21061;-58
2022/03/31 06:46:13;;;;;;;15.53;13.70;;;1.60;99.90;;;;;;5048147;28;20488;-58
2022/03/31 06:48:46;;;;;;;15.07;12.27;;;1.50;99.90;;;;;;5049375;28;20493;-59
2022/03/31 06:51:16;;;;;;;14.73;13.33;;;1.50;99.90;;;;;;5047748;28;20477;-58
2022/03/31 06:53:45;;;;;;;14.13;11.73;;;1.50;99.90;;;;;;5044328;28;20975;-57
2022/03/31 06:56:16;;;;;;;13.40;12.00;;;1.50;99.90;;;;;;5052011;28;20987;-58
2022/03/31 06:58:45;;;;;;;13.53;12.13;;;1.40;99.90;;;;;;5051843;28;20479;-58
2022/03/31 07:01:13;;;;;;;15.20;13.57;;;1.40;99.90;;;;;;5051916;28;20554;-58
2022/03/31 07:03:41;;;;;;;14.63;13.13;;;1.40;99.90;;;;;;5051370;28;20478;-58
2022/03/31 07:06:11;;;;;;;14.30;12.60;;;1.40;99.90;;;;;;5035033;28;20814;-58
2022/03/31 07:08:39;;;;;;;13.87;10.73;;;1.30;99.90;;;;;;5051893;28;21026;-57
2022/03/31 07:11:07;;;;;;;10.07;9.07;;;1.30;99.90;;;;;;5052028;28;20558;-58
2022/03/31 07:13:36;;;;;;;13.97;11.53;;;1.30;99.90;;;;;;5051750;28;20480;-58
2022/03/31 07:16:05;;;;;;;10.83;9.50;;;1.40;99.90;;;;;;5051389;28;20997;-57
2022/03/31 07:18:33;;;;;;;10.90;8.97;;;1.40;99.90;;;;;;5051356;28;20485;-57
2022/03/31 07:21:02;;;;;;;9.87;8.87;;;1.30;99.90;;;;;;5050653;28;20980;-58
2022/03/31 07:23:31;;;;;;;9.00;7.23;;;1.40;99.90;;;;;;5050564;28;20482;-58
2022/03/31 07:26:00;;;;;;;8.40;7.57;;;1.40;99.90;;;;;;5050755;28;20477;-58
2022/03/31 07:28:28;;;;;;;8.40;7.53;;;1.40;99.90;;;;;;5051039;28;21084;-58
2022/03/31 07:30:56;;;;;;;8.90;7.03;;;1.40;99.90;;;;;;5051512;28;20469;-58
2022/03/31 07:33:24;;;;;;;9.10;7.63;;;1.30;99.90;;;;;;5051652;28;20486;-58
2022/03/31 07:35:54;;;;;;;7.67;6.97;;;1.30;99.90;;;;;;5051378;28;20479;-57
2022/03/31 07:38:22;;;;;;;8.23;7.40;;;1.30;99.90;;;;;;5051637;28;20479;-58
2022/03/31 07:40:52;;;;;;;9.37;7.10;;;1.20;99.90;;;;;;5051100;28;20475;-58
2022/03/31 07:43:20;;;;;;;8.53;7.63;;;1.20;99.90;;;;;;5050578;28;20468;-58
2022/03/31 07:45:48;;;;;;;7.70;6.57;;;1.10;99.90;;;;;;5050957;28;21005;-57
2022/03/31 07:48:18;;;;;;;7.30;6.13;;;1.10;99.90;;;;;;5051105;28;20480;-58
2022/03/31 07:50:46;;;;;;;6.17;5.47;;;1.10;99.90;;;;;;5050841;28;20471;-57
2022/03/31 07:53:16;;;;;;;7.20;6.47;;;1.10;99.90;;;;;;5051277;28;20515;-58
2022/03/31 07:55:44;;;;;;;8.37;6.67;;;1.00;99.90;;;;;;5051143;28;20470;-58
2022/03/31 07:58:13;;;;;;;7.80;5.67;;;1.10;99.90;;;;;;5051191;28;21074;-58
2022/03/31 08:00:42;;;;;;;7.63;6.80;;;1.00;99.90;;;;;;5050323;28;20475;-58
2022/03/31 08:03:10;;;;;;;9.13;6.90;;;1.00;99.90;;;;;;5053899;28;20474;-58
2022/03/31 08:05:39;;;;;;;7.87;6.90;;;1.00;99.90;;;;;;5065820;28;20561;-58
2022/03/31 08:08:08;;;;;;;7.27;6.07;;;1.00;99.90;;;;;;5070801;28;20483;-58
2022/03/31 08:10:36;;;;;;;7.50;6.20;;;1.00;99.90;;;;;;5053943;28;20481;-58
2022/03/31 08:13:06;;;;;;;8.63;6.53;;;1.00;99.90;;;;;;5050715;28;20513;-58
2022/03/31 08:15:37;;;;;;;7.33;6.07;;;1.00;99.90;;;;;;5049780;28;20477;-58
2022/03/31 08:18:06;;;;;;;7.10;6.23;;;1.00;99.90;;;;;;5046578;28;20491;-58
2022/03/31 08:20:34;;;;;;;7.57;6.60;;;1.00;99.90;;;;;;5050236;28;20544;-58
2022/03/31 08:23:02;;;;;;;7.03;6.10;;;1.00;99.90;;;;;;5049518;28;20993;-58
2022/03/31 08:25:30;;;;;;;9.07;6.57;;;1.10;99.90;;;;;;5049570;28;20462;-58
2022/03/31 08:27:58;;;;;;;7.20;5.93;;;1.10;99.90;;;;;;5050570;28;20532;-58
2022/03/31 08:30:32;;;;;;;7.63;6.67;;;1.00;99.90;;;;;;5050029;28;20470;-57
2022/03/31 08:33:02;;;;;;;10.87;6.50;;;1.10;99.90;;;;;;5049777;28;20479;-58
2022/03/31 08:35:30;;;;;;;8.60;6.97;;;1.00;99.90;;;;;;5050177;28;20471;-58
2022/03/31 08:37:58;;;;;;;7.30;6.40;;;1.00;99.90;;;;;;5048658;28;20479;-57
2022/03/31 08:40:26;;;;;;;7.63;6.80;;;1.00;99.90;;;;;;5050619;28;20467;-57
2022/03/31 08:42:55;;;;;;;9.97;7.90;;;1.00;99.90;;;;;;5050688;28;20486;-58
2022/03/31 08:45:23;;;;;;;8.23;7.30;;;1.00;99.90;;;;;;5050344;28;20483;-58
2022/03/31 08:47:53;;;;;;;8.93;8.03;;;1.10;99.90;;;;;;5050649;28;20472;-58
2022/03/31 08:50:24;;;;;;;9.87;7.97;;;1.20;99.90;;;;;;5050278;28;20498;-58
2022/03/31 08:52:53;;;;;;;9.23;8.10;;;1.20;99.90;;;;;;5041934;28;20813;-58
2022/03/31 08:55:22;;;;;;;10.57;8.90;;;1.20;99.90;;;;;;5030042;28;20464;-58
2022/03/31 08:57:52;;;;;;;11.27;9.37;;;1.20;99.90;;;;;;5038939;28;20532;-59
2022/03/31 09:00:22;;;;;;;9.60;8.60;;;1.20;99.90;;;;;;5030247;28;20467;-58
2022/03/31 09:02:59;;;;;;;11.83;10.40;;;1.20;99.90;;;;;;5030145;28;20991;-58
2022/03/31 09:05:36;;;;;;;10.93;9.30;;;1.20;99.90;;;;;;5029718;28;20475;-59
2022/03/31 09:08:07;;;;;;;11.03;9.93;;;1.20;99.90;;;;;;5030198;28;20475;-57
2022/03/31 09:10:37;;;;;;;11.87;9.67;;;1.10;99.90;;;;;;5029909;28;20470;-59
2022/03/31 09:13:17;;;;;;;13.90;10.43;;;1.20;99.90;;;;;;5030591;28;20475;-58
2022/03/31 09:15:50;;;;;;;11.17;9.97;;;1.20;99.90;;;;;;5037940;28;20479;-58
2022/03/31 09:18:20;;;;;;;12.63;9.50;;;1.20;99.90;;;;;;5049243;28;20479;-58
2022/03/31 09:20:52;;;;;;;12.13;9.43;;;1.20;99.90;;;;;;5033842;28;20459;-58
2022/03/31 09:23:22;;;;;;;9.87;8.87;;;1.30;99.90;;;;;;5034127;28;20484;-58
2022/03/31 09:25:52;;;;;;;9.87;8.57;;;1.30;99.90;;;;;;5033951;28;20852;-58
2022/03/31 09:28:21;;;;;;;12.23;9.00;;;1.30;99.90;;;;;;5033995;28;20463;-58
2022/03/31 09:30:51;;;;;;;8.83;7.77;;;1.30;99.90;;;;;;5033659;28;20488;-58
2022/03/31 09:33:32;;;;;;;9.37;7.23;;;1.40;99.90;;;;;;5033387;28;20471;-58
2022/03/31 09:36:04;;;;;;;7.07;6.37;;;1.30;99.90;;;;;;5053215;28;21086;-58
2022/03/31 09:38:35;;;;;;;7.87;7.07;;;1.20;99.90;;;;;;5053663;28;20865;-59
2022/03/31 09:41:17;;;;;;;7.77;6.80;;;1.20;99.90;;;;;;5051324;28;21073;-59
2022/03/31 09:43:46;;;;;;;9.47;6.57;;;1.30;99.90;;;;;;5050676;28;20482;-59
2022/03/31 09:46:21;;;;;;;9.60;6.00;;;1.30;99.90;;;;;;5053714;28;20476;-58
2022/03/31 09:48:50;;;;;;;8.30;6.17;;;1.30;99.90;;;;;;5053339;28;20466;-58
2022/03/31 09:51:21;;;;;;;9.13;6.33;;;1.20;99.90;;;;;;5053409;28;20466;-58
2022/03/31 09:53:51;;;;;;;8.60;6.30;;;1.30;99.90;;;;;;5052909;28;20458;-58
2022/03/31 09:56:21;;;;;;;7.17;6.17;;;1.40;99.90;;;;;;5053448;28;20487;-58
2022/03/31 09:58:49;;;;;;;6.87;6.00;;;1.40;99.90;;;;;;5053233;28;20454;-58
2022/03/31 10:01:19;;;;;;;7.13;5.90;;;1.40;99.90;;;;;;5053356;28;20490;-58
2022/03/31 10:03:48;;;;;;;6.27;5.50;;;1.30;99.90;;;;;;5052982;28;20480;-58
2022/03/31 10:06:18;;;;;;;6.60;5.27;;;1.30;99.90;;;;;;5052917;28;20513;-57
2022/03/31 10:08:48;;;;;;;8.20;5.63;;;1.40;99.90;;;;;;5033462;28;20583;-58
2022/03/31 10:11:20;;;;;;;6.20;4.97;;;1.40;99.90;;;;;;5053200;28;20875;-59
2022/03/31 10:13:58;;;;;;;7.20;5.27;;;1.40;99.90;;;;;;5044316;28;20465;-59
2022/03/31 10:16:35;;;;;;;5.63;4.97;;;1.40;99.90;;;;;;5049017;28;20491;-59
2022/03/31 10:19:04;;;;;;;7.07;5.20;;;1.40;99.90;;;;;;5041373;28;20533;-57
2022/03/31 10:21:33;;;;;;;7.37;5.00;;;1.40;99.90;;;;;;5039451;28;20482;-59
2022/03/31 10:26:57;;;;;;;6.60;5.13;;;1.50;99.90;;;;;;5048417;28;20481;-59
2022/03/31 10:29:38;;;;;;;6.43;5.00;;;1.60;99.90;;;;;;5042708;28;20574;-58
2022/03/31 10:32:16;;;;;;;8.23;4.90;;;1.60;99.90;;;;;;5042523;28;20473;-58
2022/03/31 10:34:48;;;;;;;7.03;4.87;;;1.60;99.90;;;;;;5039570;28;20471;-59
2022/03/31 10:37:32;;;;;;;4.87;4.40;;;1.60;99.90;;;;;;5039781;28;20480;-59
2022/03/31 10:40:01;;;;;;;6.53;4.50;;;1.70;99.90;;;;;;5047462;28;20503;-58
2022/03/31 10:42:29;;;;;;;6.70;4.63;;;1.70;99.90;;;;;;5033084;28;20525;-58
2022/03/31 10:45:18;;;;;;;6.03;4.97;;;1.70;99.90;;;;;;5049188;28;20488;-58
2022/03/31 10:47:46;;;;;;;5.57;4.73;;;1.70;99.90;;;;;;5035946;28;20506;-59
2022/03/31 10:50:25;;;;;;;6.23;4.30;;;1.80;99.90;;;;;;5047648;28;20468;-58
2022/03/31 10:53:02;;;;;;;5.20;4.60;;;1.80;99.90;;;;;;5037197;28;20472;-59
2022/03/31 10:55:38;;;;;;;6.30;5.10;;;1.90;99.90;;;;;;5033308;28;20490;-59
2022/03/31 10:58:07;;;;;;;6.23;4.27;;;1.90;99.90;;;;;;5043391;28;20476;-59
2022/03/31 11:00:36;;;;;;;5.87;4.90;;;1.90;99.90;;;;;;5043065;28;20483;-58
2022/03/31 11:03:04;;;;;;;7.30;4.93;;;2.00;99.90;;;;;;5040396;28;20556;-59
2022/03/31 11:05:45;;;;;;;7.20;5.10;;;2.00;99.90;;;;;;5042078;28;20481;-58
2022/03/31 11:08:18;;;;;;;6.40;4.83;;;2.00;99.90;;;;;;5041438;28;20478;-58
2022/03/31 11:10:49;;;;;;;6.17;4.63;;;2.00;99.90;;;;;;5042146;28;20529;-58
2022/03/31 11:13:20;;;;;;;7.43;4.47;;;2.10;99.90;;;;;;5043439;28;20495;-58
2022/03/31 11:15:50;;;;;;;6.97;4.13;;;2.10;99.90;;;;;;5042170;28;20479;-58
2022/03/31 11:18:21;;;;;;;5.60;4.53;;;2.10;99.90;;;;;;5043983;28;20463;-59
2022/03/31 11:20:55;;;;;;;6.63;4.30;;;2.10;99.90;;;;;;5044382;28;20467;-58
2022/03/31 11:23:25;;;;;;;5.10;4.30;;;2.20;99.90;;;;;;5043363;28;20543;-58
2022/03/31 11:25:53;;;;;;;5.20;4.60;;;2.20;99.90;;;;;;5050721;28;20806;-58
2022/03/31 11:28:22;;;;;;;5.13;4.03;;;2.20;99.90;;;;;;5051832;28;20858;-58
2022/03/31 11:30:51;;;;;;;8.60;4.90;;;2.30;99.90;;;;;;5051297;28;20558;-58
2022/03/31 11:33:19;;;;;;;4.63;4.00;;;2.30;99.90;;;;;;5051112;28;20496;-59
2022/03/31 11:35:52;;;;;;;5.83;4.60;;;2.30;99.90;;;;;;5051352;28;20477;-58
2022/03/31 11:38:20;;;;;;;6.07;3.97;;;2.30;99.90;;;;;;5062512;28;20476;-58
2022/03/31 11:40:50;;;;;;;5.03;4.20;;;2.30;99.90;;;;;;5050879;28;20482;-59
2022/03/31 11:43:20;;;;;;;4.97;4.47;;;2.40;99.90;;;;;;5040158;28;20623;-58
2022/03/31 11:45:49;;;;;;;6.63;4.57;;;2.40;99.90;;;;;;5042554;28;20498;-59
2022/03/31 11:48:32;;;;;;;5.87;4.43;;;2.40;99.90;;;;;;5039690;28;20554;-58
2022/03/31 11:51:01;;;;;;;4.73;4.23;;;2.50;99.90;;;;;;5041828;28;20477;-59
2022/03/31 11:53:39;;;;;;;6.10;4.77;;;2.60;99.90;;;;;;5026697;28;20469;-59
2022/03/31 11:56:12;;;;;;;6.67;4.63;;;2.60;99.90;;;;;;5036575;28;20561;-58
2022/03/31 11:58:49;;;;;;;7.00;4.70;;;2.60;99.90;;;;;;5041425;28;20571;-59
2022/03/31 12:01:19;;;;;;;5.53;4.43;;;2.60;99.90;;;;;;5042877;28;20480;-59
2022/03/31 12:03:48;;;;;;;4.67;4.17;;;2.60;99.90;;;;;;5040513;28;20480;-58
2022/03/31 12:06:16;;;;;;;5.13;4.60;;;2.60;99.90;;;;;;5051014;28;20479;-58
2022/03/31 12:08:46;;;;;;;6.73;4.23;;;2.70;99.90;;;;;;5050542;28;20473;-58
2022/03/31 12:11:17;;;;;;;6.90;4.60;;;2.70;99.90;;;;;;5050805;28;20478;-59
2022/03/31 12:13:50;;;;;;;6.03;4.50;;;2.70;99.90;;;;;;5049192;28;20480;-59
2022/03/31 12:16:20;;;;;;;6.57;4.63;;;2.80;99.90;;;;;;5050153;28;20470;-58
2022/03/31 12:18:54;;;;;;;5.13;4.17;;;2.80;99.90;;;;;;5050311;28;20467;-59
2022/03/31 12:21:23;;;;;;;5.13;4.57;;;2.80;99.90;;;;;;5050878;28;20539;-58
2022/03/31 12:23:52;;;;;;;5.27;4.17;;;2.80;99.90;;;;;;5050690;28;20473;-58
2022/03/31 12:26:51;;;;;;;5.17;4.43;;;2.90;99.90;;;;;;5050657;28;20575;-59
2022/03/31 12:29:20;;;;;;;5.33;4.30;;;3.00;99.90;;;;;;5050558;28;20995;-59
2022/03/31 12:31:59;;;;;;;4.93;4.43;;;3.00;99.90;;;;;;5050167;28;20943;-59
2022/03/31 12:34:27;;;;;;;6.83;4.13;;;3.00;99.90;;;;;;5049621;28;20524;-59
2022/03/31 12:36:56;;;;;;;4.20;3.47;;;3.10;99.90;;;;;;5050136;28;20467;-58
2022/03/31 12:39:24;;;;;;;4.00;3.60;;;3.20;99.90;;;;;;5063078;28;20498;-58
2022/03/31 12:41:55;;;;;;;3.70;3.30;;;3.20;99.90;;;;;;5058766;28;20463;-58
2022/03/31 12:44:28;;;;;;;4.03;3.03;;;3.30;99.90;;;;;;5044794;28;20569;-58
2022/03/31 12:46:59;;;;;;;3.67;3.17;;;3.30;99.90;;;;;;5052407;28;20479;-59
2022/03/31 12:49:34;;;;;;;5.33;3.40;;;3.20;99.90;;;;;;5048113;28;20533;-59
2022/03/31 12:52:04;;;;;;;4.50;3.10;;;3.20;99.90;;;;;;5043410;28;20502;-59
2022/03/31 12:54:34;;;;;;;5.47;3.00;;;3.30;99.90;;;;;;5050322;28;20468;-58
2022/03/31 12:57:07;;;;;;;4.10;2.83;;;3.30;99.90;;;;;;5046137;28;20485;-59
2022/03/31 12:59:36;;;;;;;2.97;2.67;;;3.40;99.90;;;;;;5047010;28;20499;-58
2022/03/31 13:02:06;;;;;;;5.27;3.07;;;3.40;99.90;;;;;;5042153;28;20804;-58
2022/03/31 13:04:36;;;;;;;5.87;2.77;;;3.50;99.90;;;;;;5044575;28;20467;-59
2022/03/31 13:07:06;;;;;;;3.63;2.47;;;3.60;99.90;;;;;;5045158;28;20497;-58
2022/03/31 13:09:35;;;;;;;2.87;2.23;;;3.50;99.90;;;;;;5038761;28;20478;-59